Time;durP1;ratioP1;P1;durP2;ratioP2;P2;SDS_P1;SDS_P2;PMS_P1;PMS_P2;Temp;Humidity;BMP_temperature;BMP_pressure;BME280_temperature;BME280_humidity;BME280_pressure;Samples;Min_cycle;Max_cycle;Signal;HPM_P1;HPM_P2
2021/09/04 00:00:43;;;;;;;8.27;6.13;;;14.80;99.90;;;;;;5009723;28;20392;-73
2021/09/04 00:03:29;;;;;;;8.80;6.70;;;14.90;99.90;;;;;;5007298;28;20596;-73
2021/09/04 00:06:14;;;;;;;9.60;6.60;;;14.80;99.90;;;;;;5005518;28;20396;-72
2021/09/04 00:09:01;;;;;;;12.03;6.70;;;14.70;99.90;;;;;;5005008;28;20435;-73
2021/09/04 00:11:47;;;;;;;7.10;5.93;;;14.60;99.90;;;;;;5003422;28;20553;-73
2021/09/04 00:14:34;;;;;;;13.80;6.27;;;14.60;99.90;;;;;;5007622;28;20577;-73
2021/09/04 00:17:20;;;;;;;8.43;6.40;;;14.50;99.90;;;;;;5008023;28;20548;-73
2021/09/04 00:20:07;;;;;;;12.13;7.30;;;14.50;99.90;;;;;;4999795;28;20424;-73
2021/09/04 00:22:52;;;;;;;8.27;6.10;;;14.50;99.90;;;;;;5009989;28;20462;-73
2021/09/04 00:25:38;;;;;;;14.23;7.10;;;14.50;99.90;;;;;;5008233;28;20427;-73
2021/09/04 00:28:23;;;;;;;10.63;6.37;;;14.50;99.90;;;;;;5007747;28;20548;-73
2021/09/04 00:31:11;;;;;;;8.20;6.60;;;14.50;99.90;;;;;;5003079;28;20524;-73
2021/09/04 00:33:56;;;;;;;11.80;6.50;;;14.60;99.90;;;;;;5007420;28;20435;-73
2021/09/04 00:36:42;;;;;;;7.53;5.80;;;14.60;99.90;;;;;;5012876;28;20443;-73
2021/09/04 00:39:28;;;;;;;8.63;6.23;;;14.70;99.90;;;;;;5011657;28;20420;-73
2021/09/04 00:42:14;;;;;;;8.47;6.50;;;14.70;99.90;;;;;;5010721;28;20420;-73
2021/09/04 00:44:59;;;;;;;8.03;6.43;;;14.70;99.90;;;;;;5012470;28;20423;-73
2021/09/04 00:47:59;;;;;;;8.00;6.00;;;14.50;99.90;;;;;;5013758;28;20423;-73
2021/09/04 00:50:45;;;;;;;7.93;5.90;;;14.50;99.90;;;;;;5013394;28;20440;-73
2021/09/04 00:53:32;;;;;;;8.60;6.07;;;14.50;99.90;;;;;;5005226;28;20831;-73
2021/09/04 00:56:17;;;;;;;7.00;6.30;;;14.30;99.90;;;;;;5001760;28;20540;-73
2021/09/04 00:59:06;;;;;;;9.30;5.97;;;14.20;99.90;;;;;;5004892;28;20422;-73
2021/09/04 01:01:52;;;;;;;8.70;5.50;;;14.30;99.90;;;;;;5002858;28;20895;-73
2021/09/04 01:04:39;;;;;;;8.60;6.57;;;14.30;99.90;;;;;;5011738;28;20505;-73
2021/09/04 01:07:26;;;;;;;9.40;6.70;;;14.20;99.90;;;;;;5012834;28;20439;-73
2021/09/04 01:10:13;;;;;;;9.80;6.00;;;14.20;99.90;;;;;;5010472;28;20956;-72
2021/09/04 01:12:59;;;;;;;8.30;6.20;;;14.30;99.90;;;;;;5003805;28;20460;-73
2021/09/04 01:15:44;;;;;;;8.33;6.10;;;14.40;99.90;;;;;;5009909;28;20420;-73
2021/09/04 01:18:30;;;;;;;7.40;5.77;;;14.40;99.90;;;;;;5006610;28;20465;-73
2021/09/04 01:21:18;;;;;;;16.10;6.63;;;14.40;99.90;;;;;;5008087;28;20447;-72
2021/09/04 01:24:06;;;;;;;7.27;5.97;;;14.50;99.90;;;;;;5005078;28;20881;-72
2021/09/04 01:26:54;;;;;;;9.10;6.60;;;14.30;99.90;;;;;;5012539;28;20436;-73
2021/09/04 01:29:39;;;;;;;7.33;6.27;;;14.30;99.90;;;;;;5007692;28;20440;-73
2021/09/04 01:32:25;;;;;;;9.10;6.37;;;14.20;99.90;;;;;;5008335;28;20980;-73
2021/09/04 01:35:13;;;;;;;7.10;5.27;;;14.10;99.90;;;;;;5004376;28;20593;-73
2021/09/04 01:37:59;;;;;;;8.37;5.90;;;14.10;99.90;;;;;;5011675;28;20462;-73
2021/09/04 01:40:45;;;;;;;13.80;6.47;;;14.00;99.90;;;;;;5013383;28;20433;-72
2021/09/04 01:43:32;;;;;;;9.67;6.47;;;14.00;99.90;;;;;;5003388;28;20453;-73
2021/09/04 01:46:18;;;;;;;11.13;6.97;;;14.00;99.90;;;;;;5007971;28;20426;-72
2021/09/04 01:49:04;;;;;;;9.13;6.77;;;14.00;99.90;;;;;;5012297;28;20803;-73
2021/09/04 01:51:51;;;;;;;7.20;5.70;;;14.00;99.90;;;;;;5003913;28;21318;-73
2021/09/04 01:54:36;;;;;;;9.00;6.37;;;13.90;99.90;;;;;;5010664;28;20468;-72
2021/09/04 01:57:22;;;;;;;7.57;5.57;;;13.90;99.90;;;;;;5013279;28;20433;-72
2021/09/04 02:00:12;;;;;;;11.80;5.83;;;13.80;99.90;;;;;;5012189;28;20460;-72
2021/09/04 02:02:57;;;;;;;8.63;6.63;;;13.80;99.90;;;;;;5004827;28;20548;-72
2021/09/04 02:05:43;;;;;;;9.63;7.00;;;13.90;99.90;;;;;;5009671;28;20495;-72
2021/09/04 02:08:29;;;;;;;7.17;6.47;;;13.90;99.90;;;;;;5008255;28;20475;-73
2021/09/04 02:11:14;;;;;;;9.97;6.87;;;13.90;99.90;;;;;;5005136;28;20870;-73
2021/09/04 02:14:01;;;;;;;8.30;6.17;;;13.90;99.90;;;;;;5004437;28;20461;-72
2021/09/04 02:16:48;;;;;;;6.37;5.67;;;13.70;99.90;;;;;;5011434;28;20426;-73
2021/09/04 02:19:33;;;;;;;10.17;7.10;;;13.70;99.90;;;;;;5008704;28;20569;-72
2021/09/04 02:22:19;;;;;;;11.33;6.63;;;13.70;99.90;;;;;;5010296;28;21056;-73
2021/09/04 02:25:06;;;;;;;12.07;5.90;;;13.70;99.90;;;;;;5005266;28;20429;-72
2021/09/04 02:27:51;;;;;;;7.50;6.00;;;13.60;99.90;;;;;;5007996;28;20990;-72
2021/09/04 02:30:37;;;;;;;7.10;5.90;;;13.60;99.90;;;;;;5003161;28;20901;-72
2021/09/04 02:33:24;;;;;;;10.00;5.97;;;13.60;99.90;;;;;;5006136;28;20457;-72
2021/09/04 02:36:10;;;;;;;8.40;6.57;;;13.60;99.90;;;;;;5006264;28;20427;-73
2021/09/04 02:38:55;;;;;;;7.67;6.13;;;13.60;99.90;;;;;;5009514;28;20424;-72
2021/09/04 02:41:42;;;;;;;8.60;6.57;;;13.60;99.90;;;;;;5011522;28;20467;-73
2021/09/04 02:44:27;;;;;;;8.60;6.60;;;13.60;99.90;;;;;;5010736;28;20454;-73
2021/09/04 02:47:13;;;;;;;8.47;6.43;;;13.50;99.90;;;;;;5008437;28;20547;-72
2021/09/04 02:50:00;;;;;;;10.47;7.07;;;13.40;99.90;;;;;;5003282;28;20553;-73
2021/09/04 02:55:22;;;;;;;8.17;6.27;;;13.40;99.90;;;;;;5023698;28;20473;-73
2021/09/04 02:58:07;;;;;;;8.97;7.10;;;13.40;99.90;;;;;;5012528;28;20933;-73
2021/09/04 03:00:53;;;;;;;7.20;6.17;;;13.50;99.90;;;;;;5017673;28;20494;-72
2021/09/04 03:03:39;;;;;;;9.70;6.00;;;13.60;99.90;;;;;;5027167;28;20801;-73
2021/09/04 03:06:26;;;;;;;17.13;5.77;;;13.60;99.90;;;;;;5026842;28;20507;-72
2021/09/04 03:09:11;;;;;;;10.07;6.70;;;13.70;99.90;;;;;;5017805;28;20944;-72
2021/09/04 03:11:57;;;;;;;8.90;6.17;;;13.70;99.90;;;;;;5017026;28;20575;-72
2021/09/04 03:14:43;;;;;;;8.00;6.03;;;13.70;99.90;;;;;;5029688;28;20468;-72
2021/09/04 03:17:29;;;;;;;7.90;5.77;;;13.50;99.90;;;;;;5027737;28;20580;-73
2021/09/04 03:20:14;;;;;;;8.80;5.80;;;13.50;99.90;;;;;;5029453;28;20432;-72
2021/09/04 03:23:01;;;;;;;7.60;5.50;;;13.30;99.90;;;;;;5027061;28;20511;-72
2021/09/04 03:25:47;;;;;;;8.00;5.50;;;13.30;99.90;;;;;;5018884;28;20461;-72
2021/09/04 03:28:33;;;;;;;8.23;5.90;;;13.20;99.90;;;;;;5025762;28;20432;-73
2021/09/04 03:31:18;;;;;;;7.20;5.23;;;13.10;99.90;;;;;;5020417;28;20460;-73
2021/09/04 03:34:04;;;;;;;11.00;7.93;;;13.20;99.90;;;;;;5028917;28;20443;-73
2021/09/04 03:36:49;;;;;;;8.40;5.90;;;13.10;99.90;;;;;;5030851;28;20456;-72
2021/09/04 03:39:36;;;;;;;11.17;5.60;;;13.00;99.90;;;;;;5026243;28;20946;-72
2021/09/04 03:42:23;;;;;;;8.70;6.87;;;12.90;99.90;;;;;;5026792;28;20415;-72
2021/09/04 03:45:09;;;;;;;5.93;5.33;;;13.00;99.90;;;;;;5024749;28;20418;-73
2021/09/04 03:47:55;;;;;;;6.80;6.00;;;13.10;99.90;;;;;;5015600;28;20460;-71
2021/09/04 03:50:40;;;;;;;9.00;6.33;;;13.20;99.90;;;;;;5029374;28;20524;-72
2021/09/04 03:53:26;;;;;;;8.60;6.10;;;13.20;99.90;;;;;;5027841;28;20490;-71
2021/09/04 03:56:13;;;;;;;7.27;5.90;;;13.30;99.90;;;;;;5024970;28;20872;-73
2021/09/04 03:58:59;;;;;;;14.70;6.50;;;13.30;99.90;;;;;;5022377;28;20523;-73
2021/09/04 04:01:44;;;;;;;7.67;5.07;;;13.20;99.90;;;;;;5027508;28;20933;-72
2021/09/04 04:04:29;;;;;;;14.70;5.80;;;13.10;99.90;;;;;;5030673;28;20429;-71
2021/09/04 04:07:15;;;;;;;11.03;5.60;;;13.00;99.90;;;;;;5030248;28;20471;-72
2021/09/04 04:10:01;;;;;;;8.70;6.17;;;13.00;99.90;;;;;;5030426;28;20981;-72
2021/09/04 04:12:48;;;;;;;6.73;5.80;;;13.00;99.90;;;;;;5027480;28;21100;-70
2021/09/04 04:15:33;;;;;;;7.00;5.30;;;13.00;99.90;;;;;;5030216;28;21005;-72
2021/09/04 04:18:19;;;;;;;14.60;6.07;;;13.10;99.90;;;;;;5030038;28;20931;-72
2021/09/04 04:21:04;;;;;;;7.73;6.30;;;13.10;99.90;;;;;;5032176;28;20812;-73
2021/09/04 04:23:51;;;;;;;7.53;5.53;;;13.00;99.90;;;;;;5025497;28;20472;-72
2021/09/04 04:26:36;;;;;;;7.80;5.00;;;13.00;99.90;;;;;;5030650;28;20461;-71
2021/09/04 04:29:24;;;;;;;5.90;5.27;;;13.10;99.90;;;;;;5030660;28;20434;-72
2021/09/04 04:32:09;;;;;;;5.90;5.23;;;13.00;99.90;;;;;;5015487;28;20588;-72
2021/09/04 04:34:55;;;;;;;9.07;6.10;;;13.10;99.90;;;;;;5032288;28;20478;-70
2021/09/04 04:37:40;;;;;;;7.20;5.93;;;13.10;99.90;;;;;;5025933;28;20444;-72
2021/09/04 04:40:26;;;;;;;7.40;5.27;;;13.20;99.90;;;;;;5031436;28;20499;-72
2021/09/04 04:43:12;;;;;;;6.93;4.90;;;13.00;99.90;;;;;;5032106;28;20439;-72
2021/09/04 04:45:59;;;;;;;7.40;5.60;;;13.00;99.90;;;;;;5020307;28;20424;-72
2021/09/04 04:48:45;;;;;;;6.07;5.13;;;12.90;99.90;;;;;;5032390;28;20448;-72
2021/09/04 04:51:30;;;;;;;7.10;5.60;;;12.90;99.90;;;;;;5032362;28;20453;-72
2021/09/04 04:54:16;;;;;;;6.53;5.33;;;12.90;99.90;;;;;;5027507;28;20621;-72
2021/09/04 04:57:01;;;;;;;7.47;5.30;;;12.80;99.90;;;;;;5028583;28;20565;-72
2021/09/04 04:59:47;;;;;;;7.13;6.03;;;12.80;99.90;;;;;;5034332;28;20413;-72
2021/09/04 05:02:34;;;;;;;6.77;5.40;;;12.70;99.90;;;;;;5024560;28;20412;-73
2021/09/04 05:05:20;;;;;;;6.10;5.50;;;12.80;99.90;;;;;;5025705;28;20769;-72
2021/09/04 05:08:05;;;;;;;8.00;5.50;;;12.80;99.90;;;;;;5034048;28;20399;-72
2021/09/04 05:10:51;;;;;;;6.80;5.47;;;12.80;99.90;;;;;;5022871;28;20428;-72
2021/09/04 05:13:36;;;;;;;8.10;6.10;;;12.90;99.90;;;;;;5027065;28;20526;-71
2021/09/04 05:16:22;;;;;;;9.63;5.10;;;12.90;99.90;;;;;;5024682;28;20807;-72
2021/09/04 05:19:09;;;;;;;7.13;5.40;;;12.90;99.90;;;;;;5028387;28;20490;-73
2021/09/04 05:21:55;;;;;;;12.17;5.77;;;12.90;99.90;;;;;;5032002;28;20535;-70
2021/09/04 05:24:41;;;;;;;9.10;6.37;;;12.80;99.90;;;;;;5024953;28;20439;-72
2021/09/04 05:27:26;;;;;;;11.20;5.57;;;12.90;99.90;;;;;;5033237;28;20499;-69
2021/09/04 05:30:13;;;;;;;7.47;5.57;;;12.90;99.90;;;;;;5025128;28;20439;-72
2021/09/04 05:32:58;;;;;;;8.67;6.03;;;13.10;99.90;;;;;;5026647;28;20480;-72
2021/09/04 05:35:46;;;;;;;10.37;6.70;;;13.20;99.90;;;;;;5030906;28;20452;-72
2021/09/04 05:38:31;;;;;;;16.20;6.90;;;13.30;99.90;;;;;;5031761;28;20793;-72
2021/09/04 05:41:17;;;;;;;8.00;6.17;;;13.40;99.90;;;;;;5020130;28;21011;-70
2021/09/04 05:44:03;;;;;;;8.00;6.50;;;13.50;99.90;;;;;;5017363;28;20459;-70
2021/09/04 05:46:49;;;;;;;8.53;6.77;;;13.60;99.90;;;;;;5025153;28;20430;-72
2021/09/04 05:49:35;;;;;;;9.00;6.77;;;13.60;99.90;;;;;;5029052;28;20432;-71
2021/09/04 05:52:22;;;;;;;8.63;6.80;;;13.80;99.90;;;;;;5028725;28;20463;-72
2021/09/04 05:55:08;;;;;;;11.00;6.73;;;13.90;99.90;;;;;;5023899;28;20813;-71
2021/09/04 05:57:54;;;;;;;11.07;8.13;;;14.00;99.90;;;;;;5024163;28;20453;-72
2021/09/04 06:00:40;;;;;;;9.00;6.53;;;14.00;99.90;;;;;;5025680;28;21076;-71
2021/09/04 06:03:25;;;;;;;9.30;6.40;;;14.00;99.90;;;;;;5032640;28;20547;-70
2021/09/04 06:06:11;;;;;;;10.50;6.30;;;14.20;99.90;;;;;;5031394;28;20427;-72
2021/09/04 06:09:02;;;;;;;7.27;6.00;;;14.20;99.90;;;;;;5025849;28;20515;-71
2021/09/04 06:11:47;;;;;;;11.23;6.20;;;14.40;99.90;;;;;;5022774;28;20416;-72
2021/09/04 06:14:33;;;;;;;8.20;6.40;;;14.40;99.90;;;;;;5029438;28;20464;-72
2021/09/04 06:17:18;;;;;;;7.27;6.23;;;14.40;99.90;;;;;;5029034;28;20587;-72
2021/09/04 06:20:06;;;;;;;6.80;5.57;;;14.40;99.90;;;;;;5012871;28;21066;-71
2021/09/04 06:22:51;;;;;;;11.40;6.70;;;14.50;99.90;;;;;;5028050;28;20546;-72
2021/09/04 06:25:38;;;;;;;7.10;6.00;;;14.60;99.90;;;;;;5030681;28;20428;-71
2021/09/04 06:28:24;;;;;;;7.30;5.90;;;14.70;99.90;;;;;;5032752;28;20496;-72
2021/09/04 06:31:09;;;;;;;11.20;5.87;;;14.70;99.90;;;;;;5028404;28;21070;-72
2021/09/04 06:33:55;;;;;;;7.70;6.37;;;14.70;99.90;;;;;;5025482;28;20456;-71
2021/09/04 06:36:40;;;;;;;11.00;6.90;;;14.80;99.90;;;;;;5028036;28;20421;-70
2021/09/04 06:39:26;;;;;;;8.63;6.30;;;14.90;99.90;;;;;;5021690;28;20802;-73
2021/09/04 06:42:13;;;;;;;7.97;6.70;;;15.00;99.90;;;;;;5020384;28;20574;-71
2021/09/04 06:44:59;;;;;;;12.43;7.00;;;15.10;99.90;;;;;;5024637;28;20476;-72
2021/09/04 06:47:44;;;;;;;8.93;7.07;;;15.30;99.90;;;;;;5026921;28;20416;-69
2021/09/04 06:50:30;;;;;;;8.13;6.97;;;15.30;99.90;;;;;;5025681;28;20428;-72
2021/09/04 06:53:16;;;;;;;10.10;7.50;;;15.40;99.90;;;;;;5020712;28;20844;-73
2021/09/04 06:56:01;;;;;;;7.53;6.40;;;15.40;99.90;;;;;;5026604;28;20520;-71
2021/09/04 06:58:48;;;;;;;8.27;6.50;;;15.50;99.90;;;;;;5027648;28;20473;-72
2021/09/04 07:01:34;;;;;;;8.53;6.60;;;15.70;99.90;;;;;;5023949;28;20458;-71
2021/09/04 07:04:19;;;;;;;8.93;7.13;;;15.80;99.90;;;;;;5028832;28;20488;-70
2021/09/04 07:07:06;;;;;;;9.60;6.30;;;16.00;99.90;;;;;;5027643;28;20465;-72
2021/09/04 07:09:51;;;;;;;7.97;6.33;;;16.10;99.90;;;;;;5027666;28;20744;-72
2021/09/04 07:12:37;;;;;;;10.93;7.00;;;16.20;99.90;;;;;;5030359;28;20476;-73
2021/09/04 07:15:24;;;;;;;10.90;6.27;;;16.40;99.90;;;;;;5027257;28;20423;-75
2021/09/04 07:18:09;;;;;;;7.27;6.33;;;16.40;99.90;;;;;;5011625;28;20757;-74
2021/09/04 07:20:55;;;;;;;8.60;7.30;;;16.50;99.90;;;;;;5025769;28;20484;-74
2021/09/04 07:23:41;;;;;;;8.20;6.87;;;16.70;99.90;;;;;;5022111;28;20500;-74
2021/09/04 07:26:27;;;;;;;8.10;7.30;;;16.80;99.90;;;;;;5027800;28;20448;-75
2021/09/04 07:29:13;;;;;;;8.00;7.00;;;16.90;99.90;;;;;;5031252;28;20440;-75
2021/09/04 07:32:00;;;;;;;12.90;7.30;;;17.10;99.90;;;;;;5017625;28;20457;-75
2021/09/04 07:34:46;;;;;;;9.40;7.40;;;17.20;99.90;;;;;;5023718;28;21059;-73
2021/09/04 07:37:32;;;;;;;9.53;8.07;;;17.30;99.90;;;;;;5029344;28;20814;-72
2021/09/04 07:40:18;;;;;;;9.20;8.27;;;17.40;99.90;;;;;;5028620;28;20445;-75
2021/09/04 07:43:07;;;;;;;7.47;6.77;;;17.50;99.90;;;;;;5022984;28;20413;-74
2021/09/04 07:45:53;;;;;;;9.67;6.90;;;17.60;99.90;;;;;;5033047;28;20449;-74
2021/09/04 07:48:40;;;;;;;9.83;7.00;;;17.70;99.90;;;;;;5035679;28;20429;-73
2021/09/04 07:51:26;;;;;;;8.40;7.13;;;17.80;99.90;;;;;;5033995;28;20452;-74
2021/09/04 07:54:11;;;;;;;8.30;7.30;;;18.00;99.90;;;;;;5028626;28;20840;-73
2021/09/04 07:56:57;;;;;;;14.90;7.27;;;18.10;99.90;;;;;;5015833;28;20421;-73
2021/09/04 07:59:42;;;;;;;8.50;7.60;;;18.20;99.90;;;;;;5023355;28;20448;-73
2021/09/04 08:02:28;;;;;;;9.93;7.27;;;18.30;99.90;;;;;;5028535;28;20442;-73
2021/09/04 08:05:15;;;;;;;11.10;6.93;;;18.40;99.90;;;;;;5022446;28;20441;-73
2021/09/04 08:08:01;;;;;;;9.10;6.83;;;18.50;99.90;;;;;;5031995;28;20426;-74
2021/09/04 08:10:47;;;;;;;8.30;6.73;;;18.70;99.90;;;;;;5031577;28;21970;-73
2021/09/04 08:13:33;;;;;;;10.03;6.80;;;18.80;99.90;;;;;;5031581;28;20477;-74
2021/09/04 08:16:18;;;;;;;13.93;6.43;;;19.00;99.90;;;;;;5022061;28;20438;-74
2021/09/04 08:19:04;;;;;;;14.23;6.50;;;19.10;99.90;;;;;;5028843;28;20421;-74
2021/09/04 08:21:51;;;;;;;7.43;6.50;;;19.20;99.90;;;;;;5033982;28;20476;-74
2021/09/04 08:24:37;;;;;;;15.63;6.70;;;19.30;99.90;;;;;;5024815;28;20465;-74
2021/09/04 08:27:23;;;;;;;8.10;6.47;;;19.50;99.90;;;;;;5030182;28;20458;-73
2021/09/04 08:30:09;;;;;;;10.60;7.13;;;19.60;99.90;;;;;;5021450;28;20445;-73
2021/09/04 08:32:55;;;;;;;8.57;6.60;;;19.70;99.90;;;;;;5027129;28;20945;-74
2021/09/04 08:35:40;;;;;;;6.87;5.87;;;19.90;99.90;;;;;;5034599;28;20560;-72
2021/09/04 08:38:27;;;;;;;9.37;6.20;;;20.00;99.90;;;;;;5027910;28;20485;-73
2021/09/04 08:41:13;;;;;;;9.13;6.80;;;20.10;99.90;;;;;;5026631;28;20446;-74
2021/09/04 08:43:59;;;;;;;11.40;5.93;;;20.30;99.90;;;;;;5023103;28;20495;-74
2021/09/04 08:46:45;;;;;;;10.83;6.60;;;20.40;99.90;;;;;;5032401;28;20425;-71
2021/09/04 08:49:33;;;;;;;9.90;6.33;;;20.50;99.90;;;;;;5031652;28;20449;-70
2021/09/04 08:52:19;;;;;;;7.60;5.87;;;20.60;99.90;;;;;;5027074;28;20440;-71
2021/09/04 08:55:07;;;;;;;7.03;6.13;;;20.70;99.90;;;;;;5085926;22;20487;-73
2021/09/04 08:57:52;;;;;;;13.13;6.30;;;20.80;99.90;;;;;;5051352;28;20989;-73
2021/09/04 09:00:40;;;;;;;11.53;6.50;;;20.90;99.90;;;;;;5054304;28;20438;-74
2021/09/04 09:03:29;;;;;;;9.03;6.97;;;21.00;99.90;;;;;;5049461;28;20454;-74
2021/09/04 09:06:25;;;;;;;12.17;6.70;;;21.10;99.90;;;;;;5044618;28;20442;-74
2021/09/04 09:09:18;;;;;;;16.83;7.10;;;21.30;99.90;;;;;;5052707;28;20415;-73
2021/09/04 09:12:15;;;;;;;7.80;6.37;;;21.40;99.90;;;;;;5051843;28;20443;-73
2021/09/04 09:15:02;;;;;;;11.80;6.40;;;21.50;99.90;;;;;;5037897;28;20862;-74
2021/09/04 09:17:58;;;;;;;7.20;6.03;;;21.60;99.90;;;;;;5046528;28;20509;-74
2021/09/04 09:20:46;;;;;;;8.07;6.33;;;21.70;99.90;;;;;;5048971;28;20450;-74
2021/09/04 09:23:32;;;;;;;9.13;6.20;;;21.80;99.90;;;;;;5038305;28;20813;-74
2021/09/04 09:26:17;;;;;;;6.97;5.73;;;21.90;99.90;;;;;;5034626;28;20454;-74
2021/09/04 09:29:17;;;;;;;8.20;5.90;;;22.00;99.90;;;;;;5039535;28;20440;-73
2021/09/04 09:32:06;;;;;;;8.33;6.20;;;22.20;99.90;;;;;;5040401;28;20469;-73
2021/09/04 09:34:55;;;;;;;7.23;5.60;;;22.20;99.90;;;;;;5051344;28;21858;-74
2021/09/04 09:37:50;;;;;;;11.47;6.50;;;22.30;99.90;;;;;;5033849;28;20825;-73
2021/09/04 09:40:37;;;;;;;12.17;6.20;;;22.40;99.90;;;;;;5034243;28;20455;-74
2021/09/04 09:43:25;;;;;;;6.30;5.30;;;22.50;99.90;;;;;;5034757;28;20930;-74
2021/09/04 09:46:12;;;;;;;8.63;6.60;;;22.70;99.90;;;;;;5038563;28;20523;-73
2021/09/04 09:48:57;;;;;;;10.53;6.70;;;22.70;99.90;;;;;;5037388;28;20537;-74
2021/09/04 09:51:44;;;;;;;10.03;5.93;;;22.80;99.90;;;;;;5041989;28;20443;-74
2021/09/04 09:54:31;;;;;;;6.80;5.53;;;22.80;99.90;;;;;;5031035;28;20475;-73
2021/09/04 09:57:17;;;;;;;7.87;5.67;;;22.90;99.90;;;;;;5042458;28;20588;-73
2021/09/04 10:00:05;;;;;;;7.67;5.50;;;23.00;99.90;;;;;;5038979;28;20448;-73
2021/09/04 10:02:55;;;;;;;11.03;6.70;;;23.20;99.90;;;;;;5036451;28;20464;-73
2021/09/04 10:05:42;;;;;;;7.77;5.37;;;23.30;99.90;;;;;;5051368;28;20431;-73
2021/09/04 10:08:27;;;;;;;6.10;5.50;;;23.40;96.40;;;;;;5038209;28;20606;-74
2021/09/04 10:11:13;;;;;;;10.77;5.60;;;23.40;94.40;;;;;;5034939;28;20475;-74
2021/09/04 10:13:59;;;;;;;9.53;5.67;;;23.60;91.90;;;;;;5044497;28;20568;-74
2021/09/04 10:16:45;;;;;;;8.57;4.87;;;23.70;91.20;;;;;;5037308;28;20451;-73
2021/09/04 10:19:34;;;;;;;8.60;5.53;;;23.90;90.30;;;;;;5039494;28;20935;-74
2021/09/04 10:22:20;;;;;;;5.90;5.07;;;24.00;87.30;;;;;;5040056;28;20494;-74
2021/09/04 10:25:14;;;;;;;10.20;5.23;;;24.10;90.80;;;;;;5037475;28;20815;-74
2021/09/04 10:28:01;;;;;;;7.00;4.60;;;24.30;74.10;;;;;;5046111;28;20420;-74
2021/09/04 10:30:53;;;;;;;6.70;4.70;;;24.50;78.20;;;;;;5052261;28;20432;-74
2021/09/04 10:33:39;;;;;;;8.77;5.57;;;24.60;69.70;;;;;;5033770;28;20995;-74
2021/09/04 10:36:26;;;;;;;5.40;4.80;;;24.70;64.70;;;;;;5037000;28;20530;-74
2021/09/04 10:39:12;;;;;;;10.17;5.40;;;24.70;61.80;;;;;;5039792;28;20436;-74
2021/09/04 10:41:59;;;;;;;7.57;5.73;;;24.80;64.60;;;;;;5038335;28;20427;-74
2021/09/04 10:44:46;;;;;;;7.93;5.40;;;25.00;64.20;;;;;;5042405;28;20823;-74
2021/09/04 10:47:42;;;;;;;10.57;4.23;;;25.10;64.20;;;;;;5032923;28;20587;-75
2021/09/04 10:50:32;;;;;;;6.90;4.70;;;25.00;60.90;;;;;;5042452;28;20455;-74
2021/09/04 10:53:43;;;;;;;4.97;4.23;;;24.90;62.70;;;;;;5036345;28;20456;-74
2021/09/04 10:56:31;;;;;;;8.90;4.60;;;24.90;57.50;;;;;;5050012;28;20529;-74
2021/09/04 10:59:55;;;;;;;6.57;4.00;;;25.00;58.10;;;;;;5041209;28;20491;-75
2021/09/04 11:02:48;;;;;;;5.70;4.03;;;25.30;58.90;;;;;;5039076;28;20448;-75
2021/09/04 11:05:50;;;;;;;5.53;4.33;;;25.50;57.80;;;;;;5038211;28;20845;-76
2021/09/04 11:08:39;;;;;;;6.17;5.03;;;25.70;54.30;;;;;;5039857;28;20500;-74
2021/09/04 11:11:35;;;;;;;6.30;5.10;;;25.60;54.70;;;;;;5033618;28;20458;-74
2021/09/04 11:14:22;;;;;;;9.43;5.50;;;25.60;63.40;;;;;;5033924;28;20489;-75
2021/09/04 11:17:18;;;;;;;8.63;6.30;;;25.70;72.50;;;;;;5042738;28;20499;-75
2021/09/04 11:20:12;;;;;;;9.00;6.20;;;25.70;68.20;;;;;;5043839;28;20440;-76
2021/09/04 11:22:58;;;;;;;7.43;5.57;;;25.60;67.20;;;;;;5031296;28;20599;-76
2021/09/04 11:25:45;;;;;;;7.40;5.43;;;25.60;67.40;;;;;;5034541;28;20949;-75
2021/09/04 11:28:31;;;;;;;7.43;5.00;;;25.60;59.10;;;;;;5037097;28;20445;-76
2021/09/04 11:31:19;;;;;;;6.40;5.13;;;25.70;58.70;;;;;;5040246;28;20462;-75
2021/09/04 11:34:04;;;;;;;5.90;4.40;;;25.50;56.70;;;;;;5037268;28;20558;-75
2021/09/04 11:36:50;;;;;;;6.67;4.53;;;25.70;54.20;;;;;;5038854;28;20453;-74
2021/09/04 11:39:39;;;;;;;5.67;3.90;;;25.90;55.30;;;;;;5049605;28;20428;-74
2021/09/04 11:42:28;;;;;;;5.60;4.23;;;26.20;51.60;;;;;;5033478;28;20540;-74
2021/09/04 11:45:16;;;;;;;7.60;5.20;;;26.30;48.50;;;;;;5030848;28;20591;-74
2021/09/04 11:48:06;;;;;;;7.20;4.10;;;26.30;45.90;;;;;;5031569;28;20963;-74
2021/09/04 11:50:51;;;;;;;8.70;4.37;;;26.50;49.20;;;;;;5031751;28;20426;-74
2021/09/04 11:53:37;;;;;;;7.23;4.37;;;26.70;46.30;;;;;;5030905;28;20425;-74
2021/09/04 11:56:22;;;;;;;6.20;4.50;;;26.80;46.60;;;;;;5034696;28;20841;-74
2021/09/04 11:59:09;;;;;;;5.27;4.77;;;27.00;48.50;;;;;;5042380;28;20465;-74
2021/09/04 12:02:00;;;;;;;7.00;4.00;;;27.10;48.40;;;;;;5051374;28;20425;-74
2021/09/04 12:04:46;;;;;;;7.43;4.10;;;27.10;46.60;;;;;;5051153;28;20436;-74
2021/09/04 12:07:32;;;;;;;5.60;4.40;;;27.20;45.00;;;;;;5052233;28;20560;-74
2021/09/04 12:10:23;;;;;;;6.03;4.63;;;27.30;45.40;;;;;;5031083;28;20432;-74
2021/09/04 12:13:11;;;;;;;6.50;4.47;;;27.40;41.60;;;;;;5031195;28;20508;-75
2021/09/04 12:16:00;;;;;;;6.03;4.40;;;27.30;41.90;;;;;;5031662;28;20557;-74
2021/09/04 12:18:46;;;;;;;5.23;4.47;;;27.20;44.20;;;;;;5030871;28;20435;-74
2021/09/04 12:21:36;;;;;;;7.30;4.90;;;26.90;43.30;;;;;;5031151;28;20424;-74
2021/09/04 12:24:31;;;;;;;6.87;5.17;;;26.60;47.70;;;;;;5032847;28;20461;-74
2021/09/04 12:27:17;;;;;;;6.47;4.90;;;26.40;51.70;;;;;;5031269;28;20417;-74
2021/09/04 12:30:02;;;;;;;6.27;4.43;;;26.40;51.90;;;;;;5028750;28;20456;-74
2021/09/04 12:32:49;;;;;;;5.30;3.90;;;26.60;46.20;;;;;;5046943;28;20449;-74
2021/09/04 12:35:52;;;;;;;5.87;4.80;;;26.60;43.30;;;;;;5046876;28;20582;-74
2021/09/04 12:38:43;;;;;;;7.07;5.00;;;26.90;43.40;;;;;;5033488;28;20449;-75
2021/09/04 12:41:31;;;;;;;7.13;4.63;;;27.20;43.00;;;;;;5049476;28;20438;-75
2021/09/04 12:44:17;;;;;;;7.53;4.60;;;27.50;43.60;;;;;;5046523;28;20476;-74
2021/09/04 12:47:04;;;;;;;4.87;4.10;;;27.80;42.00;;;;;;5037762;28;20459;-73
2021/09/04 12:49:55;;;;;;;6.07;4.93;;;28.00;41.50;;;;;;5046379;28;20539;-73
2021/09/04 12:52:41;;;;;;;5.33;4.50;;;27.70;40.60;;;;;;5043497;28;20593;-74
2021/09/04 12:55:26;;;;;;;5.43;4.00;;;27.80;40.90;;;;;;5045114;28;20553;-74
2021/09/04 12:58:12;;;;;;;5.57;4.47;;;28.00;43.00;;;;;;5047454;28;20441;-74
2021/09/04 13:01:11;;;;;;;5.63;4.23;;;27.90;42.30;;;;;;5043465;28;20866;-74
2021/09/04 13:03:57;;;;;;;5.50;4.50;;;27.60;43.20;;;;;;5044502;28;20547;-75
2021/09/04 13:06:44;;;;;;;6.03;4.53;;;27.50;48.00;;;;;;5040530;28;20529;-74
2021/09/04 13:09:30;;;;;;;6.50;5.30;;;27.60;48.50;;;;;;5040024;28;20455;-74
2021/09/04 13:12:16;;;;;;;4.97;4.13;;;27.70;47.10;;;;;;5046746;28;20440;-74
2021/09/04 13:15:02;;;;;;;11.70;4.70;;;27.60;44.90;;;;;;5039991;28;20514;-72
2021/09/04 13:17:48;;;;;;;6.37;4.40;;;27.50;46.30;;;;;;5038605;28;20441;-73
2021/09/04 13:20:34;;;;;;;6.40;4.73;;;27.80;43.10;;;;;;5033397;28;20430;-73
2021/09/04 13:23:21;;;;;;;10.30;6.87;;;28.10;42.80;;;;;;5044243;28;20441;-72
2021/09/04 13:26:07;;;;;;;6.87;4.73;;;27.90;44.30;;;;;;5050849;28;20453;-72
2021/09/04 13:28:53;;;;;;;4.83;3.90;;;27.60;45.00;;;;;;5041290;28;20582;-73
2021/09/04 13:31:43;;;;;;;5.77;4.80;;;27.50;46.90;;;;;;5047713;28;20441;-73
2021/09/04 13:34:29;;;;;;;5.10;4.13;;;27.90;52.50;;;;;;5041019;28;20493;-74
2021/09/04 13:37:15;;;;;;;5.80;4.30;;;28.30;47.60;;;;;;5053421;28;20534;-73
2021/09/04 13:40:02;;;;;;;10.33;5.17;;;28.60;43.30;;;;;;5053542;28;20419;-73
2021/09/04 13:42:47;;;;;;;9.47;7.20;;;29.00;43.30;;;;;;5053287;28;20836;-72
2021/09/04 13:45:35;;;;;;;7.03;5.33;;;29.40;43.70;;;;;;5042982;28;20461;-73
2021/09/04 13:48:21;;;;;;;5.00;4.10;;;29.80;43.00;;;;;;5048385;28;20508;-72
2021/09/04 13:51:06;;;;;;;8.27;4.97;;;29.40;37.80;;;;;;5033135;28;20499;-72
2021/09/04 13:53:52;;;;;;;9.13;4.57;;;29.50;42.10;;;;;;5042138;28;20477;-72
2021/09/04 13:56:39;;;;;;;6.80;4.70;;;29.80;39.40;;;;;;5047295;28;20540;-72
2021/09/04 13:59:24;;;;;;;6.50;4.83;;;29.60;39.10;;;;;;5053036;28;20565;-72
2021/09/04 14:02:10;;;;;;;5.90;4.47;;;29.60;37.70;;;;;;5036207;28;20491;-72
2021/09/04 14:04:56;;;;;;;6.20;4.50;;;29.90;37.30;;;;;;5047065;28;20513;-72
2021/09/04 14:07:41;;;;;;;10.33;5.67;;;30.20;37.40;;;;;;5053894;28;20912;-72
2021/09/04 14:10:27;;;;;;;6.20;4.40;;;30.40;36.20;;;;;;5045625;28;20810;-73
2021/09/04 14:13:16;;;;;;;5.80;4.40;;;30.60;38.00;;;;;;5041963;28;20561;-73
2021/09/04 14:16:02;;;;;;;6.40;4.77;;;30.60;35.10;;;;;;5051576;28;20471;-73
2021/09/04 14:18:48;;;;;;;6.23;3.80;;;30.60;34.50;;;;;;5048402;28;20466;-72
2021/09/04 14:21:33;;;;;;;5.47;4.40;;;30.60;35.10;;;;;;5045174;28;20439;-73
2021/09/04 14:24:19;;;;;;;5.90;4.50;;;30.70;36.20;;;;;;5047877;28;20483;-73
2021/09/04 14:27:05;;;;;;;5.60;4.20;;;30.80;35.00;;;;;;5049574;28;20979;-72
2021/09/04 14:29:52;;;;;;;7.13;4.80;;;30.40;35.00;;;;;;5052215;28;20637;-72